LEU weather

Pirineus - la Seu d'Urgel Airport
La Seu d'Urgell Pyrenees and Andorra, Catalonia, Spain

Public forecast

Using degrees Celsius for public forecast. Weather courtesy of forecast.io.

METAR (pilot weather report)

Report is more than 6 hours old.

Retrieved 2019/09/18 15:00 UTC (15 hours ago):

LESU 181500Z 03007KT 9999 TS VCSH SCT065CB BKN085 19/14 Q1019

TAF (pilot weather forecast)

Retrieved 2019/09/19 03:00 UTC (3 hours ago):

TAF LESU 190200Z 1903/2003 VRB03KT 9999 SCT030 TX24/1913Z TN09/1905Z TEMPO 1912/1917 19010KT PROB40 TEMPO 1913/1920 36015G30KT 4000 TSRA FEW030CB